• Join FlightAware (Why Join?)
  • Login
  • US Flag 
07:18PM EDT


 

Airport Tracker/Info


-or-


 

Live Flight TrackerFlight Track Log ✈ GJS3618 ✈ 04-May-2013 ✈ KDEN - KOKC

Flight Track Log - Related Links

Times and Time Zones

All times are in EDT time to prevent confusion due to time zone crossing. See the GJS3618 flight status page for this flight to view local times or setup timezone preferences in your user account.

Time Position Orientation Groundspeed Altitude Reporting Facility
EDT Latitude Longitude Course Direction KTS MPH feet Rate Location/Type
12:19PM 39.8833 -104.6167 108° East 159 183 6,500  Level Denver TRACON
12:20PM 39.8667 -104.5500 108° East 206 237 8,200 1,560 Climbing Denver TRACON
12:21PM 39.8333 -104.4667 117° Southeast 269 310 9,500 1,560 Climbing Denver TRACON
12:21PM 39.8306 -104.4533 105° East 264 304 10,200 2,280 Climbing Denver Center
12:22PM 39.7911 -104.3406 114° Southeast 316 364 12,500 2,220 Climbing Denver Center
12:23PM 39.7519 -104.2236 114° Southeast 354 407 14,800 2,220 Climbing Denver Center
12:24PM 39.7081 -104.1017 115° Southeast 375 432 17,100 2,340 Climbing Denver Center
12:25PM 39.6594 -103.9647 115° Southeast 386 444 19,700 2,100 Climbing Denver Center
12:26PM 39.6075 -103.8367 118° Southeast 402 463 21,500 1,740 Climbing Denver Center
12:27PM 39.5664 -103.7056 112° Southeast 390 449 23,400 1,500 Climbing Denver Center
12:29PM 39.5300 -103.5581 108° East 424 488 24,700 1,440 Climbing Denver Center
12:30PM 39.4900 -103.4072 109° East 439 505 26,400 1,500 Climbing Denver Center
12:31PM 39.4414 -103.2261 109° East 451 519 27,800 1,140 Climbing Denver Center
12:32PM 39.3992 -103.0658 109° East 467 537 28,800 960 Climbing Denver Center
12:33PM 39.3533 -102.9003 110° East 482 555 29,900 960 Climbing Denver Center
12:34PM 39.3056 -102.7236 109° East 494 568 30,900 960 Climbing Denver Center
12:35PM 39.2619 -102.5617 109° East 500 575 31,900 960 Climbing Denver Center
12:36PM 39.1947 -102.3800 115° Southeast 511 588 33,000 960 Climbing Denver Center
12:37PM 39.0956 -102.2683 139° Southeast 496 571 34,000 900 Climbing Denver Center
12:38PM 38.9864 -102.1719 146° Southeast 498 573 34,900 960 Climbing Denver Center
12:39PM 38.8578 -102.0622 146° Southeast 498 573 36,000 960 Climbing Denver Center
12:40PM 38.7489 -101.9678 146° Southeast 494 568 37,000 960 Climbing Denver Center
12:41PM 38.6231 -101.8589 146° Southeast 489 563 38,100 720 Climbing Denver Center
12:42PM 38.5167 -101.7650 145° Southeast 486 559 38,600 480 Climbing Denver Center
12:43PM 38.3906 -101.6575 146° Southeast 488 562 39,200 480 Climbing Denver Center
12:44PM 38.2469 -101.5361 146° Southeast 486 559 39,800 540 Climbing Denver Center
12:45PM 38.1408 -101.4453 146° Southeast 482 555 40,400 540 Climbing Denver Center
12:46PM 38.0172 -101.3403 146° Southeast 479 551 41,000 240 Climbing Denver Center
12:47PM 37.9114 -101.2522 147° Southeast 476 548 41,000  Level Denver Center
12:48PM 37.8583 -101.2078 147° Southeast 477 549 41,000  Level Kansas City Center
12:49PM 37.7514 -101.1153 146° Southeast 484 557 41,000  Level Kansas City Center
12:50PM 37.6522 -100.9714 131° Southeast 492 566 41,000  Level Kansas City Center
12:51PM 37.5736 -100.8469 129° Southeast 494 568 41,000  Level Kansas City Center
12:52PM 37.4769 -100.7000 130° Southeast 493 567 41,000  Level Kansas City Center
12:53PM 37.3956 -100.5742 129° Southeast 488 562 41,000  Level Kansas City Center
12:54PM 37.2981 -100.4272 130° Southeast 489 563 41,000  Level Kansas City Center
12:55PM 37.2153 -100.3006 129° Southeast 491 565 41,000  Level Kansas City Center
12:56PM 37.1175 -100.1525 130° Southeast 493 567 41,000 -300 Level Kansas City Center
12:57PM 37.0328 -100.0269 130° Southeast 493 567 40,500 -720 Descending Kansas City Center
12:58PM 36.9486 -99.8994 130° Southeast 496 571 39,600 -1,320 Descending Kansas City Center
12:59PM 36.8478 -99.7522 131° Southeast 499 574 37,900 -2,040 Descending Kansas City Center
01:00PM 36.7589 -99.6214 130° Southeast 509 586 35,500 -2,580 Descending Kansas City Center
01:01PM 36.6564 -99.4692 130° Southeast 513 590 32,700 -2,580 Descending Kansas City Center
01:02PM 36.5706 -99.3425 130° Southeast 506 582 30,300 -2,460 Descending Kansas City Center
01:03PM 36.4797 -99.2108 131° Southeast 495 570 27,700 -2,520 Descending Kansas City Center
01:04PM 36.3911 -99.0847 131° Southeast 486 559 25,200 -1,860 Descending Kansas City Center
01:05PM 36.3111 -98.9656 130° Southeast 461 531 24,000 -900 Descending Kansas City Center
01:06PM 36.2339 -98.8542 131° Southeast 435 501 23,400 -1,500 Descending Kansas City Center
01:07PM 36.1569 -98.7447 131° Southeast 426 490 21,000 -2,820 Descending Kansas City Center
01:08PM 36.0700 -98.6214 131° Southeast 404 465 17,700 -2,640 Descending Kansas City Center
01:09PM 36.0028 -98.5206 129° Southeast 387 445 15,700 -1,980 Descending Kansas City Center
01:10PM 35.9319 -98.4231 132° Southeast 383 441 13,700 -1,740 Descending Kansas City Center
01:11PM 35.8739 -98.3381 130° Southeast 383 441 12,500 -1,380 Descending Fort Worth Center
01:11PM 35.8514 -98.3072 132° Southeast 381 438 12,200 -840 Descending Fort Worth Center
01:12PM 35.8225 -98.2633 129° Southeast 385 443 11,800 -1,020 Descending Fort Worth Center
01:12PM 35.7831 -98.2144 135° Southeast 372 428 11,200 -1,020 Descending Fort Worth Center
01:13PM 35.7481 -98.1731 136° Southeast 385 443 10,800 -1,020 Descending Fort Worth Center
01:13PM 35.7086 -98.1369 143° Southeast 333 383 10,200 -1,200 Descending Fort Worth Center
01:14PM 35.6794 -98.1036 137° Southeast 355 409 9,600 -1,680 Descending Fort Worth Center
01:14PM 35.6483 -98.0700 139° Southeast 302 348 8,700 -1,800 Descending Fort Worth Center
01:15PM 35.6172 -98.0342 137° Southeast 326 375 7,800 -1,920 Descending Fort Worth Center
01:15PM 35.5861 -98.0006 139° Southeast 301 346 6,800 -2,040 Descending Fort Worth Center
01:16PM 35.5531 -97.9647 139° Southeast 313 360 5,800 -1,740 Descending Fort Worth Center
01:16PM 35.5219 -97.9339 141° Southeast 305 351 5,100 -1,320 Descending Fort Worth Center
01:17PM 35.4928 -97.8981 135° Southeast 303 349 4,500 -1,140 Descending Fort Worth Center
01:17PM 35.4639 -97.8672 139° Southeast 288 331 4,000 -1,020 Descending Fort Worth Center
01:18PM 35.4367 -97.8314 133° Southeast 296 341 3,500 -1,020 Descending Fort Worth Center
01:18PM 35.4097 -97.7906 129° Southeast 280 322 3,000 -600 Descending Fort Worth Center
01:19PM 35.3869 -97.7572 130° Southeast 284 327 2,900  Descending Fort Worth Center
01:19PM 35.3619 -97.7267 135° Southeast 249 287 3,000 60 Climbing Fort Worth Center
01:20PM 35.3369 -97.7011 140° Southeast 265 305 3,000  Level Fort Worth Center
01:20PM 35.3078 -97.6781 147° Southeast 232 267 3,000  Level Fort Worth Center
01:21PM 35.2933 -97.6500 122° Southeast 241 277 3,000 -300 Level Fort Worth Center
01:21PM 35.2933 -97.6222 90° East 146 168 2,700 -300 Descending Fort Worth Center
01:22PM 35.3058 -97.6094 40° Northeast 149 171 2,700 -420 Level Fort Worth Center
01:22PM 35.3247 -97.6119 354° North 100 115 2,300 -720 Descending Fort Worth Center
01:23PM 35.3394 -97.6069 15° North 86 99 2,000 -600 Descending Fort Worth Center
01:23PM 35.3561 -97.6122 346° North 107 123 1,700 -660 Descending Fort Worth Center